Strona główna
METAR-TAF:

METAR-TAF

Lotnisko :

Port lotniczy Jakuck

Jakuck, Rosja

Szerokość geograficzna: 62-01N, Długość geograficzna: 129-43E, wysokość: 103 m

Aktualna obserwacja pogody

Raport powstał 31 minut temu, godzina 12:00 UTC
Wiatr 4 kt od północno-północny zachód
Temperatura -34°C
Wilgotność 74%
Ciśnienie 1013 hPa
Widzialność 10 km lub więcej
Brak chmur poniżej 1500 m i brak chmur cumulonimbus

METAR: UEEE 181200Z 34002MPS CAVOK M34/M37 Q1013 R23L/490150 NOSIG RMK QFE751

czas: 21:31 (12:31 UTC)

Prognoza

Raport powstał 1 godzina i 31 minut temu, godzina 11:00 UTC
Prognoza ważna od 18 godzina 12 UTC do 19 godzina 18 UTC
Wiatr 2 kt z kierunków zmiennych
Widzialność: 3200 m
zamglenie
Przejściowo
od 18 godzina 12 UTC do 19 godzina 03 UTC
Widzialność: 0300 m
na wysokości 300 ft
mgła

TAF: UEEE 181100Z 1812/1918 VRB01MPS 3200 BR NSC TEMPO 1812/1903 0300 FG VV003

Obserwacja i prognoza pogody dla ponad 4000 lotnisk (raport METAR i TAF).

Dostępne stacje oznaczono żółtymi i czerwonymi punktami na mapie.

Najedź kursorem aby zobaczyć nazwę stacji.

Kliknij aby zobaczyć obserwacje i prognozy pogody.

Aby zmienić mapę: kliknij na zielony przycisk z czarnym krzyżykiem, aby powiększyć; na zielony przycisk z myślnikiem, aby pomniejszyć; na zielone strzałki, aby przejść do map sąsiednich.


METAR-TAF: